TRA078 EHEH-EHRD
Flight info
| Callsign | TRA078 |
|---|---|
| Flight time | 0h 19m |
| Altitude | 6000 |
| Route | INKET4J INKET INKET2R |
| Aircraft | B738/M-SDE2E3FGHIRWXY/LB1 |
Departure
| Time | 2026-04-27 02:34 |
|---|---|
| Airport | Eindhoven Airport (EHEH) |
Arrival
| Time | 2026-04-27 02:53 |
|---|---|
| Airport | Rotterdam The Hague Airport (EHRD) |
| Time | Latitude | Longitude | Altitude | Speed | Heading |
|---|---|---|---|---|---|
| 2026-04-27 02:17 | 51.45724 | 5.38885 | 68 ft | 0 kts | 124° |
| 2026-04-27 02:24 | 51.45724 | 5.38884 | 73 ft | 1 kts | 124° |
| 2026-04-27 02:24 | 51.45733 | 5.38864 | 71 ft | 3 kts | 122° |
| 2026-04-27 02:24 | 51.45743 | 5.38837 | 63 ft | 3 kts | 116° |
| 2026-04-27 02:24 | 51.45751 | 5.38807 | 64 ft | 3 kts | 109° |
| 2026-04-27 02:25 | 51.45757 | 5.38777 | 65 ft | 2 kts | 101° |
| 2026-04-27 02:25 | 51.45758 | 5.38769 | 66 ft | 1 kts | 100° |
| 2026-04-27 02:27 | 51.45758 | 5.38772 | 65 ft | 1 kts | 89° |
| 2026-04-27 02:27 | 51.45773 | 5.38788 | 67 ft | 5 kts | 22° |
| 2026-04-27 02:27 | 51.45793 | 5.38783 | 71 ft | 2 kts | 333° |
| 2026-04-27 02:28 | 51.45817 | 5.38733 | 73 ft | 8 kts | 300° |
| 2026-04-27 02:28 | 51.45847 | 5.38655 | 67 ft | 8 kts | 302° |
| 2026-04-27 02:28 | 51.45877 | 5.38579 | 77 ft | 8 kts | 302° |
| 2026-04-27 02:28 | 51.45910 | 5.38497 | 72 ft | 10 kts | 309° |
| 2026-04-27 02:29 | 51.45960 | 5.38395 | 74 ft | 13 kts | 306° |
| 2026-04-27 02:29 | 51.45994 | 5.38319 | 70 ft | 12 kts | 305° |
| 2026-04-27 02:29 | 51.45990 | 5.38269 | 72 ft | 4 kts | 222° |
| 2026-04-27 02:29 | 51.45939 | 5.38217 | 67 ft | 19 kts | 212° |
| 2026-04-27 02:30 | 51.45791 | 5.38051 | 76 ft | 27 kts | 215° |
| 2026-04-27 02:30 | 51.45642 | 5.37879 | 73 ft | 26 kts | 215° |
| 2026-04-27 02:30 | 51.45495 | 5.37720 | 84 ft | 26 kts | 215° |
| 2026-04-27 02:30 | 51.45352 | 5.37554 | 77 ft | 26 kts | 217° |
| 2026-04-27 02:31 | 51.45206 | 5.37387 | 75 ft | 25 kts | 213° |
| 2026-04-27 02:31 | 51.45060 | 5.37232 | 82 ft | 24 kts | 214° |
| 2026-04-27 02:31 | 51.44916 | 5.37074 | 83 ft | 28 kts | 218° |
| 2026-04-27 02:31 | 51.44736 | 5.36864 | 81 ft | 36 kts | 214° |
| 2026-04-27 02:32 | 51.44522 | 5.36624 | 71 ft | 38 kts | 215° |
| 2026-04-27 02:32 | 51.44319 | 5.36396 | 81 ft | 28 kts | 215° |
| 2026-04-27 02:32 | 51.44210 | 5.36273 | 85 ft | 13 kts | 213° |
| 2026-04-27 02:32 | 51.44170 | 5.36281 | 85 ft | 6 kts | 138° |
| 2026-04-27 02:33 | 51.44132 | 5.36347 | 85 ft | 10 kts | 129° |
| 2026-04-27 02:33 | 51.44121 | 5.36453 | 79 ft | 9 kts | 54° |
| 2026-04-27 02:33 | 51.44155 | 5.36490 | 82 ft | 13 kts | 33° |
| 2026-04-27 02:33 | 51.44546 | 5.36920 | 74 ft | 125 kts | 34° |
| 2026-04-27 02:34 | 51.45378 | 5.37862 | 936 ft | 149 kts | 37° |
| 2026-04-27 02:34 | 51.46216 | 5.38804 | 2408 ft | 148 kts | 36° |
| 2026-04-27 02:34 | 51.47126 | 5.39821 | 3419 ft | 178 kts | 35° |
| 2026-04-27 02:34 | 51.48260 | 5.41079 | 4045 ft | 217 kts | 32° |
| 2026-04-27 02:35 | 51.49838 | 5.41776 | 4546 ft | 259 kts | 355° |
| 2026-04-27 02:35 | 51.51510 | 5.40740 | 5129 ft | 265 kts | 323° |
| 2026-04-27 02:35 | 51.52759 | 5.38559 | 5286 ft | 269 kts | 308° |
| 2026-04-27 02:35 | 51.53846 | 5.36098 | 5293 ft | 270 kts | 305° |
| 2026-04-27 02:36 | 51.54908 | 5.33616 | 5294 ft | 269 kts | 305° |
| 2026-04-27 02:36 | 51.55982 | 5.31157 | 5294 ft | 269 kts | 307° |
| 2026-04-27 02:36 | 51.57076 | 5.28720 | 5294 ft | 269 kts | 307° |
| 2026-04-27 02:36 | 51.58185 | 5.26300 | 5296 ft | 269 kts | 308° |
| 2026-04-27 02:37 | 51.59307 | 5.23886 | 5292 ft | 269 kts | 307° |
| 2026-04-27 02:37 | 51.60410 | 5.21456 | 5294 ft | 269 kts | 307° |
| 2026-04-27 02:37 | 51.61457 | 5.18964 | 5284 ft | 270 kts | 296° |
| 2026-04-27 02:37 | 51.61988 | 5.16079 | 5300 ft | 270 kts | 282° |
| 2026-04-27 02:38 | 51.62354 | 5.13115 | 5283 ft | 271 kts | 282° |
| 2026-04-27 02:38 | 51.62718 | 5.10144 | 5289 ft | 271 kts | 282° |
| 2026-04-27 02:38 | 51.63091 | 5.07177 | 5304 ft | 271 kts | 282° |
| 2026-04-27 02:38 | 51.63473 | 5.04207 | 5295 ft | 271 kts | 283° |
| 2026-04-27 02:39 | 51.63862 | 5.01241 | 5291 ft | 270 kts | 283° |
| 2026-04-27 02:39 | 51.64252 | 4.98307 | 5282 ft | 264 kts | 283° |
| 2026-04-27 02:39 | 51.64636 | 4.95443 | 5283 ft | 260 kts | 283° |
| 2026-04-27 02:39 | 51.65018 | 4.92621 | 5303 ft | 264 kts | 283° |
| 2026-04-27 02:40 | 51.65420 | 4.89651 | 5306 ft | 270 kts | 283° |
| 2026-04-27 02:40 | 51.65821 | 4.86693 | 5293 ft | 271 kts | 283° |
| 2026-04-27 02:40 | 51.66218 | 4.83760 | 5291 ft | 272 kts | 283° |
| 2026-04-27 02:40 | 51.66621 | 4.80787 | 5290 ft | 272 kts | 283° |
| 2026-04-27 02:41 | 51.67023 | 4.77817 | 5290 ft | 271 kts | 283° |
| 2026-04-27 02:41 | 51.67422 | 4.74869 | 5284 ft | 269 kts | 283° |
| 2026-04-27 02:41 | 51.67825 | 4.71879 | 5303 ft | 270 kts | 283° |
| 2026-04-27 02:41 | 51.68225 | 4.68909 | 5297 ft | 272 kts | 283° |
| 2026-04-27 02:42 | 51.68621 | 4.65968 | 5298 ft | 273 kts | 283° |
| 2026-04-27 02:42 | 51.69023 | 4.62972 | 5103 ft | 273 kts | 283° |
| 2026-04-27 02:42 | 51.69416 | 4.60036 | 4829 ft | 263 kts | 283° |
| 2026-04-27 02:42 | 51.69796 | 4.57188 | 4566 ft | 257 kts | 283° |
| 2026-04-27 02:43 | 51.70168 | 4.54397 | 4301 ft | 254 kts | 283° |
| 2026-04-27 02:43 | 51.70543 | 4.51588 | 4054 ft | 257 kts | 283° |
| 2026-04-27 02:43 | 51.70910 | 4.48822 | 3905 ft | 244 kts | 284° |
| 2026-04-27 02:43 | 51.71250 | 4.46249 | 3785 ft | 226 kts | 284° |
| 2026-04-27 02:44 | 51.71567 | 4.43853 | 3670 ft | 211 kts | 283° |
| 2026-04-27 02:44 | 51.71862 | 4.41619 | 3560 ft | 198 kts | 284° |
| 2026-04-27 02:44 | 51.72141 | 4.39511 | 3466 ft | 187 kts | 284° |
| 2026-04-27 02:44 | 51.72405 | 4.37521 | 3349 ft | 178 kts | 284° |
| 2026-04-27 02:45 | 51.72665 | 4.35557 | 3090 ft | 179 kts | 283° |
| 2026-04-27 02:45 | 51.72923 | 4.33592 | 2835 ft | 179 kts | 284° |
| 2026-04-27 02:45 | 51.73182 | 4.31625 | 2573 ft | 179 kts | 283° |
| 2026-04-27 02:45 | 51.73441 | 4.29658 | 2324 ft | 179 kts | 283° |
| 2026-04-27 02:46 | 51.74011 | 4.27933 | 2061 ft | 176 kts | 326° |
| 2026-04-27 02:46 | 51.75134 | 4.27275 | 2060 ft | 173 kts | 345° |
| 2026-04-27 02:46 | 51.76293 | 4.26710 | 2009 ft | 173 kts | 343° |
| 2026-04-27 02:46 | 51.77427 | 4.26123 | 2000 ft | 170 kts | 343° |
| 2026-04-27 02:47 | 51.78527 | 4.25532 | 2012 ft | 164 kts | 342° |
| 2026-04-27 02:47 | 51.79605 | 4.24937 | 2002 ft | 164 kts | 342° |
| 2026-04-27 02:47 | 51.80672 | 4.24336 | 2004 ft | 164 kts | 342° |
| 2026-04-27 02:47 | 51.81751 | 4.23723 | 2004 ft | 165 kts | 341° |
| 2026-04-27 02:48 | 51.82830 | 4.23104 | 2002 ft | 165 kts | 342° |
| 2026-04-27 02:48 | 51.83911 | 4.22484 | 2001 ft | 165 kts | 342° |
| 2026-04-27 02:48 | 51.84978 | 4.21869 | 2004 ft | 159 kts | 341° |
| 2026-04-27 02:48 | 51.86016 | 4.21577 | 1980 ft | 150 kts | 15° |
| 2026-04-27 02:49 | 51.86807 | 4.22599 | 2028 ft | 149 kts | 52° |
| 2026-04-27 02:49 | 51.87470 | 4.23911 | 2006 ft | 150 kts | 50° |
| 2026-04-27 02:49 | 51.88132 | 4.25219 | 2014 ft | 148 kts | 53° |
| 2026-04-27 02:49 | 51.88723 | 4.26556 | 1997 ft | 144 kts | 56° |
| 2026-04-27 02:50 | 51.89276 | 4.27908 | 1997 ft | 145 kts | 57° |
| 2026-04-27 02:50 | 51.89830 | 4.29293 | 1978 ft | 148 kts | 57° |
| 2026-04-27 02:50 | 51.90369 | 4.30648 | 1836 ft | 136 kts | 58° |
| 2026-04-27 02:50 | 51.90862 | 4.31891 | 1643 ft | 129 kts | 58° |
| 2026-04-27 02:51 | 51.91352 | 4.33125 | 1457 ft | 130 kts | 58° |
| 2026-04-27 02:51 | 51.91831 | 4.34330 | 1287 ft | 126 kts | 59° |
| 2026-04-27 02:51 | 51.92296 | 4.35501 | 1112 ft | 122 kts | 59° |
| 2026-04-27 02:51 | 51.92756 | 4.36659 | 958 ft | 123 kts | 59° |
| 2026-04-27 02:52 | 51.93221 | 4.37828 | 771 ft | 122 kts | 58° |
| 2026-04-27 02:52 | 51.93679 | 4.38980 | 625 ft | 122 kts | 57° |
| 2026-04-27 02:52 | 51.94146 | 4.40152 | 452 ft | 123 kts | 57° |
| 2026-04-27 02:52 | 51.94617 | 4.41329 | 270 ft | 126 kts | 56° |
| 2026-04-27 02:53 | 51.95096 | 4.42533 | 114 ft | 129 kts | 57° |
| 2026-04-27 02:53 | 51.95573 | 4.43733 | 3 ft | 118 kts | 57° |
| 2026-04-27 02:53 | 51.95906 | 4.44550 | -3 ft | 20 kts | 57° |
| 2026-04-27 02:53 | 51.95864 | 4.44729 | 0 ft | 16 kts | 149° |
| 2026-04-27 02:54 | 51.95764 | 4.44725 | 0 ft | 16 kts | 232° |
| 2026-04-27 02:54 | 51.95705 | 4.44572 | 1 ft | 16 kts | 237° |
| 2026-04-27 02:54 | 51.95643 | 4.44413 | 0 ft | 18 kts | 237° |
| 2026-04-27 02:54 | 51.95576 | 4.44237 | 1 ft | 18 kts | 242° |
| 2026-04-27 02:55 | 51.95504 | 4.44055 | 0 ft | 20 kts | 236° |
| 2026-04-27 02:55 | 51.95424 | 4.43857 | 0 ft | 21 kts | 238° |
| 2026-04-27 02:55 | 51.95344 | 4.43660 | 0 ft | 21 kts | 236° |
| 2026-04-27 02:55 | 51.95236 | 4.43532 | 0 ft | 21 kts | 164° |
| 2026-04-27 02:56 | 51.95110 | 4.43646 | 0 ft | 21 kts | 148° |
| 2026-04-27 02:56 | 51.95027 | 4.43694 | 0 ft | 9 kts | 208° |
| 2026-04-27 02:56 | 51.94992 | 4.43600 | 0 ft | 11 kts | 240° |
| 2026-04-27 02:56 | 51.94981 | 4.43557 | 0 ft | 1 kts | 279° |
| 2026-04-27 02:57 | 51.94997 | 4.43527 | 1 ft | 3 kts | 327° |
| 2026-04-27 02:57 | 51.95017 | 4.43506 | 0 ft | 0 kts | 326° |